createdAt,value
2023-05-20T00:00:03.289Z,5.9571
2023-05-20T00:01:11.622Z,6.4357
2023-05-20T00:02:19.466Z,6.0929
2023-05-20T00:03:27.758Z,5.9714
2023-05-20T00:04:35.647Z,5.7286
2023-05-20T00:05:44.007Z,5.7500
2023-05-20T00:06:51.825Z,6.0143
2023-05-20T00:07:59.750Z,6.3786
2023-05-20T00:09:07.811Z,6.2071
2023-05-20T00:10:15.872Z,6.0071
2023-05-20T00:11:23.851Z,6.1500
2023-05-20T00:12:31.861Z,5.9500
2023-05-20T00:13:39.952Z,6.2071
2023-05-20T00:14:48.132Z,5.9214
2023-05-20T00:15:56.356Z,5.9214
2023-05-20T00:17:04.312Z,6.0714
2023-05-20T00:18:12.490Z,5.8929
2023-05-20T00:19:20.448Z,5.7357
2023-05-20T00:20:28.500Z,5.5500
2023-05-20T00:21:36.730Z,5.9357
2023-05-20T00:22:44.611Z,6.0929
2023-05-20T00:23:52.721Z,5.7857
2023-05-20T00:25:00.722Z,5.8143
2023-05-20T00:26:08.698Z,6.0500
2023-05-20T00:27:16.722Z,6.1000
2023-05-20T00:28:24.789Z,6.3643
2023-05-20T00:29:32.941Z,6.4571
2023-05-20T00:30:41.076Z,6.5357
2023-05-20T00:31:49.185Z,6.4429
2023-05-20T00:32:57.274Z,6.5857
2023-05-20T00:34:05.235Z,6.3714
2023-05-20T00:35:13.380Z,6.4214
2023-05-20T00:36:21.357Z,6.5214
2023-05-20T00:37:29.508Z,6.8500
2023-05-20T00:38:37.652Z,6.4143
2023-05-20T00:39:45.581Z,6.2286
2023-05-20T00:40:53.493Z,6.3500
2023-05-20T00:42:01.593Z,5.9143
2023-05-20T00:43:09.649Z,6.2214
2023-05-20T00:44:17.853Z,6.2857
2023-05-20T00:45:25.886Z,6.4357
2023-05-20T00:46:34.146Z,6.7929
2023-05-20T00:47:41.942Z,6.2214
2023-05-20T00:48:50.097Z,7.0286
2023-05-20T00:49:58.188Z,6.5714
2023-05-20T00:51:06.229Z,6.2643
2023-05-20T00:52:14.378Z,6.2286
2023-05-20T00:53:22.361Z,6.2071
2023-05-20T00:54:30.466Z,6.3571
2023-05-20T00:55:38.355Z,6.7500
2023-05-20T00:56:46.406Z,7.0857
2023-05-20T00:57:54.515Z,6.9929
2023-05-20T00:59:02.705Z,6.6929
2023-05-20T01:00:10.926Z,6.9929
2023-05-20T01:01:18.807Z,6.8357
2023-05-20T01:02:26.980Z,6.7286
2023-05-20T01:03:34.996Z,6.5000
2023-05-20T01:04:43.009Z,6.8786
2023-05-20T01:05:51.113Z,6.7571
2023-05-20T01:06:59.120Z,6.7286
2023-05-20T01:08:07.237Z,6.6571
2023-05-20T01:09:15.261Z,5.9000
2023-05-20T01:10:23.203Z,6.2500
2023-05-20T01:11:31.251Z,6.4429
2023-05-20T01:12:39.332Z,6.4857
2023-05-20T01:13:47.651Z,6.3786
2023-05-20T01:14:55.661Z,6.7143
2023-05-20T01:16:03.746Z,6.5143
2023-05-20T01:17:11.791Z,6.2214
2023-05-20T01:18:19.953Z,6.2214
2023-05-20T01:19:27.975Z,6.5214
2023-05-20T01:20:36.193Z,6.6500
2023-05-20T01:21:44.085Z,6.4500
2023-05-20T01:22:52.160Z,6.5571
2023-05-20T01:24:00.163Z,5.9429
2023-05-20T01:25:08.093Z,6.0714
2023-05-20T01:26:16.163Z,6.6643
2023-05-20T01:27:24.228Z,6.8571
2023-05-20T01:28:32.617Z,6.4786
2023-05-20T01:29:40.484Z,6.8786
2023-05-20T01:30:48.571Z,7.0000
2023-05-20T01:31:56.722Z,7.3714
2023-05-20T01:33:04.744Z,7.1071
2023-05-20T01:34:12.805Z,6.6286
2023-05-20T01:35:20.824Z,7.4571
2023-05-20T01:36:28.909Z,8.3000
2023-05-20T01:37:36.938Z,8.1857
2023-05-20T01:38:45.054Z,8.0786
2023-05-20T01:39:52.929Z,8.2071
2023-05-20T01:41:00.975Z,7.3000
2023-05-20T01:42:09.033Z,7.2786
2023-05-20T01:43:17.816Z,6.6429
2023-05-20T01:44:25.523Z,7.3429
2023-05-20T01:45:33.526Z,7.5000
2023-05-20T01:46:41.512Z,6.8929
2023-05-20T01:47:49.630Z,7.2500
2023-05-20T01:48:57.407Z,6.7357
2023-05-20T01:50:05.633Z,6.8714
2023-05-20T01:51:13.880Z,6.6000
2023-05-20T01:52:21.858Z,6.5571
2023-05-20T01:53:29.821Z,6.8000
2023-05-20T01:54:37.874Z,6.4071
2023-05-20T01:55:46.062Z,6.6500
2023-05-20T01:56:54.045Z,6.6643
2023-05-20T01:58:01.944Z,6.6571
2023-05-20T01:59:09.995Z,6.6857
2023-05-20T02:00:18.051Z,6.5429
2023-05-20T02:01:26.497Z,6.4071
2023-05-20T02:02:34.384Z,6.6214
2023-05-20T02:03:42.555Z,7.0643
2023-05-20T02:04:50.437Z,6.6786
2023-05-20T02:05:58.633Z,6.5143
2023-05-20T02:07:06.609Z,6.8643
2023-05-20T02:08:14.749Z,6.8429
2023-05-20T02:09:22.684Z,7.1429
2023-05-20T02:10:30.792Z,6.9786
2023-05-20T02:11:38.920Z,6.7643
2023-05-20T02:12:46.752Z,6.3643
2023-05-20T02:13:54.823Z,6.5286
2023-05-20T02:15:02.898Z,6.9929
2023-05-20T02:16:11.155Z,7.3714
2023-05-20T02:17:19.203Z,7.3143
2023-05-20T02:18:27.270Z,7.4286
2023-05-20T02:19:35.303Z,7.0143
2023-05-20T02:20:43.375Z,6.8929
2023-05-20T02:21:51.425Z,6.9929
2023-05-20T02:22:59.552Z,6.9857
2023-05-20T02:24:07.499Z,6.6071
2023-05-20T02:25:15.834Z,6.9143
2023-05-20T02:26:23.653Z,6.7214
2023-05-20T02:27:31.607Z,6.7143
2023-05-20T02:28:39.691Z,6.5143
2023-05-20T02:29:47.717Z,6.9857
2023-05-20T02:30:55.887Z,6.3786
2023-05-20T02:32:03.971Z,6.5857
2023-05-20T02:33:12.250Z,7.0786
2023-05-20T02:34:20.121Z,7.0714
2023-05-20T02:35:28.152Z,7.2143
2023-05-20T02:36:36.320Z,7.7500
2023-05-20T02:37:44.498Z,6.8000
2023-05-20T02:38:52.359Z,7.1143
2023-05-20T02:40:00.467Z,7.5500
2023-05-20T02:41:08.550Z,8.0357
2023-05-20T02:42:16.472Z,7.1357
2023-05-20T02:43:24.506Z,6.9643
2023-05-20T02:44:32.568Z,6.6571
2023-05-20T02:45:40.925Z,7.4143
2023-05-20T02:46:48.900Z,7.1214
2023-05-20T02:47:56.945Z,6.6071
2023-05-20T02:49:05.018Z,7.1714
2023-05-20T02:50:12.883Z,7.2214
2023-05-20T02:51:21.094Z,7.3071
2023-05-20T02:52:29.292Z,6.7929
2023-05-20T02:53:37.199Z,6.9429
2023-05-20T02:54:45.262Z,7.2786
2023-05-20T02:55:53.352Z,7.1500
2023-05-20T02:57:01.255Z,6.9857
2023-05-20T02:58:09.556Z,7.6500
2023-05-20T02:59:17.429Z,8.1929
2023-05-20T03:00:25.611Z,7.7929
2023-05-20T03:01:33.738Z,7.3357
2023-05-20T03:02:41.939Z,6.8500
2023-05-20T03:03:49.913Z,7.1286
2023-05-20T03:04:57.846Z,6.8643
2023-05-20T03:06:05.943Z,7.5357
2023-05-20T03:07:14.037Z,7.4714
2023-05-20T03:08:22.113Z,7.3714
2023-05-20T03:09:30.103Z,7.6643
2023-05-20T03:10:38.212Z,7.1714
2023-05-20T03:11:46.126Z,7.3786
2023-05-20T03:12:54.266Z,7.4571
2023-05-20T03:14:02.270Z,7.7500
2023-05-20T03:15:10.593Z,7.8357
2023-05-20T03:16:18.731Z,8.6429
2023-05-20T03:17:26.597Z,8.8000
2023-05-20T03:18:34.703Z,8.6429
2023-05-20T03:19:42.982Z,9.3143
2023-05-20T03:20:50.776Z,9.0571
2023-05-20T03:21:58.852Z,9.0000
2023-05-20T03:23:07.005Z,9.4500
2023-05-20T03:24:15.088Z,9.1786
2023-05-20T03:25:23.003Z,9.0214
2023-05-20T03:26:30.992Z,9.3571
2023-05-20T03:27:39.020Z,9.1286
2023-05-20T03:28:47.139Z,8.4714
2023-05-20T03:29:55.273Z,8.0929
2023-05-20T03:31:03.564Z,8.5929
2023-05-20T03:32:11.512Z,8.4571
2023-05-20T03:33:19.543Z,8.5000
2023-05-20T03:34:27.557Z,7.9929
2023-05-20T03:35:35.924Z,7.8714
2023-05-20T03:36:43.706Z,8.1571
2023-05-20T03:37:51.868Z,7.0429
2023-05-20T03:38:59.871Z,6.6214
2023-05-20T03:40:07.900Z,6.4500
2023-05-20T03:41:15.833Z,6.3857
2023-05-20T03:42:23.886Z,6.1571
2023-05-20T03:43:31.991Z,6.3286
2023-05-20T03:44:40.169Z,6.0500
2023-05-20T03:45:48.232Z,5.9571
2023-05-20T03:46:56.473Z,5.9429
2023-05-20T03:48:04.351Z,6.2929
2023-05-20T03:49:12.464Z,6.5857
2023-05-20T03:50:20.500Z,6.2929
2023-05-20T03:51:28.752Z,7.0143
2023-05-20T03:52:36.572Z,7.1714
2023-05-20T03:53:44.899Z,7.3857
2023-05-20T03:54:52.589Z,7.0500
2023-05-20T03:56:00.665Z,7.5286
2023-05-20T03:57:08.723Z,9.0214
2023-05-20T03:58:16.905Z,8.5500
2023-05-20T03:59:25.004Z,8.5143
2023-05-20T04:00:33.037Z,8.4500
2023-05-20T04:01:41.285Z,8.1643
2023-05-20T04:02:49.310Z,7.3857
2023-05-20T04:03:57.485Z,7.3429
2023-05-20T04:05:05.407Z,6.8786
2023-05-20T04:06:13.489Z,6.9500
2023-05-20T04:07:21.402Z,7.2143
2023-05-20T04:08:29.548Z,6.9429
2023-05-20T04:09:37.426Z,6.9643
2023-05-20T04:10:45.511Z,6.9000
2023-05-20T04:11:53.576Z,6.9143
2023-05-20T04:13:01.803Z,7.1571
2023-05-20T04:14:09.819Z,7.6071
2023-05-20T04:15:17.933Z,7.4643
2023-05-20T04:16:26.282Z,7.9143
2023-05-20T04:17:34.175Z,8.3929
2023-05-20T04:18:42.128Z,8.7429
2023-05-20T04:19:50.208Z,8.5286
2023-05-20T04:20:58.204Z,8.5857
2023-05-20T04:22:06.256Z,8.5357
2023-05-20T04:23:14.348Z,8.4143
2023-05-20T04:24:22.249Z,8.1929
2023-05-20T04:25:30.334Z,8.3429
2023-05-20T04:26:38.388Z,7.9429
2023-05-20T04:27:46.631Z,8.0286
2023-05-20T04:28:54.611Z,7.9286
2023-05-20T04:30:02.762Z,8.1500
2023-05-20T04:31:10.865Z,8.1143
2023-05-20T04:32:18.873Z,8.3214
2023-05-20T04:33:27.042Z,8.8929
2023-05-20T04:34:34.982Z,8.4929
2023-05-20T04:35:43.177Z,8.3643
2023-05-20T04:36:51.062Z,9.3143
2023-05-20T04:37:59.109Z,9.8857
2023-05-20T04:39:07.092Z,9.5786
2023-05-20T04:40:15.126Z,9.8929
2023-05-20T04:41:23.164Z,9.4500
2023-05-20T04:42:31.471Z,8.8857
2023-05-20T04:43:39.430Z,8.8857
2023-05-20T04:44:47.525Z,9.1357
2023-05-20T04:45:55.567Z,8.5571
2023-05-20T04:47:03.635Z,8.7857
2023-05-20T04:48:11.739Z,8.9357
2023-05-20T04:49:19.945Z,9.0643
2023-05-20T04:50:27.861Z,9.4286
2023-05-20T04:51:35.920Z,9.6143
2023-05-20T04:52:43.979Z,9.3786
2023-05-20T04:53:51.902Z,8.9214
2023-05-20T04:55:00.028Z,9.0786
2023-05-20T04:56:08.048Z,9.9286
2023-05-20T04:57:16.422Z,10.3429
2023-05-20T04:58:24.445Z,10.1571
2023-05-20T04:59:32.391Z,9.9500
2023-05-20T05:00:40.379Z,10.3286
2023-05-20T05:01:48.618Z,10.7500
2023-05-20T05:02:56.663Z,9.3071
2023-05-20T05:04:04.545Z,9.5357
2023-05-20T05:05:12.989Z,9.6571
2023-05-20T05:06:20.733Z,9.3714
2023-05-20T05:07:28.755Z,9.7071
2023-05-20T05:08:36.702Z,10.1000
2023-05-20T05:09:44.835Z,9.6500
2023-05-20T05:10:52.864Z,9.6857
2023-05-20T05:12:01.044Z,9.8500
2023-05-20T05:13:09.094Z,9.8357
2023-05-20T05:14:17.331Z,10.1786
2023-05-20T05:15:25.279Z,9.8143
2023-05-20T05:16:33.512Z,9.7214
2023-05-20T05:17:41.427Z,9.5786
2023-05-20T05:18:49.458Z,9.4071
2023-05-20T05:19:57.537Z,9.0857
2023-05-20T05:21:05.573Z,9.4714
2023-05-20T05:22:13.739Z,9.7857
2023-05-20T05:23:21.534Z,9.0929
2023-05-20T05:24:29.671Z,9.4071
2023-05-20T05:25:37.767Z,9.8143
2023-05-20T05:26:45.973Z,9.3643
2023-05-20T05:27:53.995Z,9.2214
2023-05-20T05:29:02.072Z,9.5143
2023-05-20T05:30:10.309Z,9.4714
2023-05-20T05:31:18.185Z,9.4143
2023-05-20T05:32:26.476Z,9.4857
2023-05-20T05:33:34.338Z,9.8000
2023-05-20T05:34:42.351Z,9.5429
2023-05-20T05:35:50.691Z,9.1143
2023-05-20T05:36:58.523Z,9.7357
2023-05-20T05:38:06.453Z,9.1143
2023-05-20T05:39:14.516Z,9.5429
2023-05-20T05:40:22.617Z,9.9143
2023-05-20T05:41:30.796Z,9.2500
2023-05-20T05:42:38.819Z,9.0500
2023-05-20T05:43:46.924Z,8.1857
2023-05-20T05:44:54.938Z,9.1786
2023-05-20T05:46:03.236Z,8.7929
2023-05-20T05:47:11.175Z,9.0143
2023-05-20T05:48:19.131Z,8.8929
2023-05-20T05:49:27.408Z,9.6500
2023-05-20T05:50:35.244Z,9.5786
2023-05-20T05:51:43.572Z,8.8143
2023-05-20T05:52:51.208Z,9.2857
2023-05-20T05:53:59.310Z,9.2786
2023-05-20T05:55:07.373Z,9.1500
2023-05-20T05:56:15.616Z,9.5929
2023-05-20T05:57:23.624Z,9.3000
2023-05-20T05:58:31.804Z,9.3857
2023-05-20T05:59:39.737Z,9.4786
2023-05-20T06:00:47.937Z,8.6786
2023-05-20T06:01:56.162Z,8.8929
2023-05-20T06:03:04.102Z,8.7857
2023-05-20T06:04:12.063Z,8.8571
2023-05-20T06:05:20.056Z,8.9643
2023-05-20T06:06:28.183Z,8.8714
2023-05-20T06:07:36.059Z,8.9071
2023-05-20T06:08:44.130Z,8.7071
2023-05-20T06:09:52.202Z,8.0429
2023-05-20T06:11:00.449Z,7.8929
2023-05-20T06:12:08.481Z,8.1000
2023-05-20T06:13:16.832Z,8.3000
2023-05-20T06:14:24.573Z,8.7071
2023-05-20T06:15:32.789Z,8.6286
2023-05-20T06:16:40.779Z,8.3929
2023-05-20T06:17:48.904Z,8.4786
2023-05-20T06:18:56.956Z,8.2429
2023-05-20T06:20:04.864Z,8.1857
2023-05-20T06:21:13.004Z,8.5286
2023-05-20T06:22:20.868Z,8.1929
2023-05-20T06:23:28.951Z,8.3714
2023-05-20T06:24:36.977Z,8.7786
2023-05-20T06:25:45.186Z,8.6429
2023-05-20T06:26:53.222Z,8.4929
2023-05-20T06:28:01.403Z,8.4000
2023-05-20T06:29:09.402Z,8.2786
2023-05-20T06:30:17.521Z,8.2357
2023-05-20T06:31:25.576Z,8.4357
2023-05-20T06:32:33.678Z,8.6429
2023-05-20T06:33:41.722Z,8.5071
2023-05-20T06:34:49.824Z,8.7143
2023-05-20T06:35:57.928Z,8.3000
2023-05-20T06:37:05.712Z,8.4643
2023-05-20T06:38:13.810Z,8.4000
2023-05-20T06:39:21.831Z,7.9143
2023-05-20T06:40:30.039Z,8.4357
2023-05-20T06:41:38.128Z,7.9929
2023-05-20T06:42:46.109Z,7.7071
2023-05-20T06:43:54.285Z,8.0286
2023-05-20T06:45:02.282Z,8.2143
2023-05-20T06:46:10.350Z,8.0214
2023-05-20T06:47:18.402Z,8.1357
2023-05-20T06:48:26.504Z,8.2643
2023-05-20T06:49:34.489Z,8.1143
2023-05-20T06:50:42.639Z,7.7143
2023-05-20T06:51:50.502Z,8.3000
2023-05-20T06:52:58.615Z,8.3143
2023-05-20T06:54:06.687Z,8.2500
2023-05-20T06:55:14.868Z,8.4357
2023-05-20T06:56:22.871Z,8.5500
2023-05-20T06:57:30.949Z,7.7500
2023-05-20T06:58:39.054Z,8.0214
2023-05-20T06:59:47.054Z,8.3714
2023-05-20T07:00:55.109Z,8.4357
2023-05-20T07:02:03.324Z,8.6857
2023-05-20T07:03:11.262Z,8.5571
2023-05-20T07:04:19.372Z,8.1714
2023-05-20T07:05:27.435Z,8.3714
2023-05-20T07:06:35.280Z,8.3571
2023-05-20T07:07:43.367Z,8.6357
2023-05-20T07:08:51.414Z,8.5929
2023-05-20T07:09:59.646Z,8.7714
2023-05-20T07:11:07.532Z,8.6429
2023-05-20T07:12:15.603Z,8.5643
2023-05-20T07:13:23.791Z,9.2214
2023-05-20T07:14:31.879Z,9.3429
2023-05-20T07:15:39.899Z,8.9214
2023-05-20T07:16:48.108Z,8.9357
2023-05-20T07:17:56.095Z,9.4643
2023-05-20T07:19:04.166Z,9.6643
2023-05-20T07:20:12.234Z,9.6000
2023-05-20T07:21:20.081Z,9.2786
2023-05-20T07:22:28.167Z,9.4786
2023-05-20T07:23:36.216Z,10.2429
2023-05-20T07:24:44.411Z,9.4929
2023-05-20T07:25:52.466Z,9.4929
2023-05-20T07:27:00.549Z,9.8500
2023-05-20T07:28:08.574Z,9.4000
2023-05-20T07:29:16.645Z,9.3429
2023-05-20T07:30:24.795Z,9.5643
2023-05-20T07:31:32.798Z,9.5286
2023-05-20T07:32:41.033Z,8.8714
2023-05-20T07:33:48.940Z,9.0071
2023-05-20T07:34:56.987Z,9.2929
2023-05-20T07:36:04.917Z,8.8571
2023-05-20T07:37:12.933Z,9.0286
2023-05-20T07:38:20.989Z,8.8929
2023-05-20T07:39:29.088Z,9.0714
2023-05-20T07:40:37.120Z,9.2857
2023-05-20T07:41:45.411Z,8.9714
2023-05-20T07:42:53.315Z,9.1071
2023-05-20T07:44:01.406Z,9.0714
2023-05-20T07:45:09.457Z,8.7929
2023-05-20T07:46:19.355Z,9.3000
2023-05-20T07:47:30.477Z,9.1000
2023-05-20T07:48:38.537Z,9.2857
2023-05-20T07:49:46.600Z,9.2786
2023-05-20T07:50:54.621Z,9.3000
2023-05-20T07:52:03.165Z,9.3714
2023-05-20T07:53:10.704Z,9.1071
2023-05-20T07:54:18.706Z,8.8571
2023-05-20T07:55:26.935Z,9.0786
2023-05-20T07:56:34.966Z,8.9429
2023-05-20T07:57:44.726Z,9.0000
2023-05-20T07:58:55.937Z,8.9800
2023-05-20T08:00:04.024Z,8.8214
2023-05-20T08:01:12.072Z,8.6929
2023-05-20T08:02:20.172Z,8.0643
2023-05-20T08:03:28.293Z,8.8714
2023-05-20T08:04:36.304Z,8.8214
2023-05-20T08:05:44.170Z,8.6214
2023-05-20T08:06:52.221Z,8.6500
2023-05-20T08:08:00.296Z,8.6143
2023-05-20T08:09:08.677Z,8.4500
2023-05-20T08:10:16.531Z,8.4500
2023-05-20T08:11:24.588Z,8.4929
2023-05-20T08:12:32.667Z,7.9000
2023-05-20T08:13:40.954Z,7.8429
2023-05-20T08:14:48.750Z,8.1929
2023-05-20T08:15:57.020Z,8.3429
2023-05-20T08:17:04.924Z,8.6429
2023-05-20T08:18:13.096Z,8.6286
2023-05-20T08:19:21.057Z,8.5357
2023-05-20T08:20:28.927Z,8.3571
2023-05-20T08:21:36.998Z,8.4571
2023-05-20T08:22:45.058Z,8.1929
2023-05-20T08:23:53.263Z,8.2429
2023-05-20T08:25:01.250Z,8.3286
2023-05-20T08:26:09.216Z,7.9429
2023-05-20T08:27:17.446Z,8.4357
2023-05-20T08:28:25.473Z,8.2429
2023-05-20T08:29:33.778Z,8.5643
2023-05-20T08:30:41.871Z,8.7000
2023-05-20T08:31:49.657Z,8.4143
2023-05-20T08:32:57.717Z,8.0500
2023-05-20T08:34:05.969Z,7.9214
2023-05-20T08:35:13.754Z,8.3643
2023-05-20T08:36:21.816Z,8.3286
2023-05-20T08:37:29.825Z,7.8143
2023-05-20T08:38:38.014Z,7.8714
2023-05-20T08:39:46.135Z,8.0786
2023-05-20T08:40:54.027Z,8.0786
2023-05-20T08:42:02.204Z,8.3214
2023-05-20T08:43:10.274Z,8.0929
2023-05-20T08:44:18.338Z,8.1714
2023-05-20T08:45:26.503Z,8.3857
2023-05-20T08:46:34.483Z,8.3071
2023-05-20T08:47:42.501Z,8.1714
2023-05-20T08:48:50.637Z,8.0714
2023-05-20T08:49:58.485Z,7.9500
2023-05-20T08:51:06.575Z,8.2214
2023-05-20T08:52:14.611Z,8.3929
2023-05-20T08:53:22.760Z,8.2643
2023-05-20T08:54:30.856Z,8.1571
2023-05-20T08:55:39.188Z,8.4857
2023-05-20T08:56:46.975Z,8.7214
2023-05-20T08:57:54.888Z,8.3929
2023-05-20T08:59:03.104Z,8.1214
2023-05-20T09:00:11.054Z,8.5214
2023-05-20T09:01:19.237Z,8.2000
2023-05-20T09:02:27.332Z,8.3571
2023-05-20T09:03:35.336Z,8.3071
2023-05-20T09:04:43.293Z,8.1571
2023-05-20T09:05:51.313Z,8.1357
2023-05-20T09:06:59.333Z,7.8357
2023-05-20T09:08:07.555Z,8.1429
2023-05-20T09:09:15.453Z,7.9214
2023-05-20T09:10:23.751Z,8.4571
2023-05-20T09:11:31.646Z,8.5143
2023-05-20T09:12:39.764Z,8.1500
2023-05-20T09:13:47.851Z,8.2714
2023-05-20T09:14:55.890Z,8.0500
2023-05-20T09:16:04.055Z,8.1857
2023-05-20T09:17:12.209Z,8.0286
2023-05-20T09:18:20.073Z,8.1429
2023-05-20T09:19:28.023Z,8.3500
2023-05-20T09:20:36.071Z,8.0357
2023-05-20T09:21:44.107Z,8.0357
2023-05-20T09:22:52.236Z,8.0143
2023-05-20T09:24:00.339Z,8.2143
2023-05-20T09:25:08.373Z,8.0143
2023-05-20T09:26:16.463Z,8.1643
2023-05-20T09:27:24.474Z,7.9143
2023-05-20T09:28:32.896Z,7.8929
2023-05-20T09:29:40.595Z,7.8786
2023-05-20T09:30:48.718Z,8.3357
2023-05-20T09:31:56.814Z,7.9000
2023-05-20T09:33:04.933Z,8.1500
2023-05-20T09:34:12.856Z,7.7786
2023-05-20T09:35:20.900Z,8.2071
2023-05-20T09:36:28.962Z,8.4786
2023-05-20T09:37:37.162Z,8.1286
2023-05-20T09:38:45.175Z,8.2571
2023-05-20T09:39:53.293Z,8.0786
2023-05-20T09:41:01.290Z,8.2643
2023-05-20T09:42:09.478Z,8.0286
2023-05-20T09:43:17.442Z,8.4286
2023-05-20T09:44:25.454Z,8.4929
2023-05-20T09:45:33.711Z,8.5071
2023-05-20T09:46:41.745Z,8.4714
2023-05-20T09:47:49.703Z,8.1286
2023-05-20T09:48:57.662Z,7.8571
2023-05-20T09:50:05.648Z,7.8143
2023-05-20T09:51:13.771Z,7.9857
2023-05-20T09:52:21.787Z,7.2714
2023-05-20T09:53:29.948Z,7.5143
2023-05-20T09:54:38.084Z,7.8143
2023-05-20T09:55:46.088Z,7.8357
2023-05-20T09:56:54.243Z,7.8000
2023-05-20T09:58:02.239Z,8.1786
2023-05-20T09:59:10.282Z,7.8571
2023-05-20T10:00:18.319Z,7.5214
2023-05-20T10:01:26.527Z,7.7000
2023-05-20T10:02:34.627Z,7.4214
2023-05-20T10:03:44.144Z,7.4143
2023-05-20T10:04:55.395Z,7.0733
2023-05-20T10:06:03.377Z,7.0786
2023-05-20T10:07:11.456Z,7.4357
2023-05-20T10:08:19.656Z,7.4786
2023-05-20T10:09:27.749Z,7.4500
2023-05-20T10:10:35.788Z,7.3857
2023-05-20T10:11:43.815Z,7.4929
2023-05-20T10:12:51.937Z,6.9929
2023-05-20T10:13:59.994Z,7.2071
2023-05-20T10:15:07.983Z,7.7786
2023-05-20T10:16:16.131Z,7.2714
2023-05-20T10:17:24.166Z,7.1000
2023-05-20T10:18:32.233Z,7.1214
2023-05-20T10:19:40.326Z,7.2071
2023-05-20T10:20:48.348Z,7.2286
2023-05-20T10:21:56.275Z,7.2571
2023-05-20T10:23:04.336Z,7.4357
2023-05-20T10:24:12.399Z,7.5286
2023-05-20T10:25:20.579Z,7.2929
2023-05-20T10:26:28.603Z,7.5429
2023-05-20T10:27:36.655Z,7.3857
2023-05-20T10:28:44.770Z,7.8429
2023-05-20T10:29:52.863Z,7.3429
2023-05-20T10:31:00.904Z,7.8500
2023-05-20T10:32:08.984Z,7.8786
2023-05-20T10:33:17.091Z,7.5286
2023-05-20T10:34:25.078Z,7.2643
2023-05-20T10:35:33.276Z,7.5000
2023-05-20T10:36:42.723Z,7.2071
2023-05-20T10:37:49.159Z,7.6357
2023-05-20T10:38:57.260Z,7.3786
2023-05-20T10:40:05.403Z,7.6286
2023-05-20T10:41:13.517Z,7.8071
2023-05-20T10:42:21.526Z,7.9786
2023-05-20T10:43:29.598Z,7.6857
2023-05-20T10:44:37.674Z,7.1786
2023-05-20T10:45:45.769Z,7.6429
2023-05-20T10:47:13.215Z,7.5429
2023-05-20T10:48:06.732Z,7.7200
2023-05-20T10:49:14.765Z,7.6286
2023-05-20T10:50:22.695Z,7.7714
2023-05-20T10:51:30.785Z,7.6143
2023-05-20T10:52:38.815Z,7.5857
2023-05-20T10:53:47.013Z,7.8571
2023-05-20T10:54:55.148Z,7.5357
2023-05-20T10:56:03.138Z,7.4857
2023-05-20T10:57:11.368Z,7.4071
2023-05-20T10:58:19.265Z,7.4857
2023-05-20T10:59:27.434Z,7.2000
2023-05-20T11:00:35.657Z,7.2071
2023-05-20T11:01:43.666Z,7.3643
2023-05-20T11:02:51.524Z,7.0357
2023-05-20T11:03:59.836Z,7.4071
2023-05-20T11:05:07.534Z,7.4071
2023-05-20T11:06:17.622Z,7.1429
2023-05-20T11:07:28.652Z,7.2267
2023-05-20T11:08:36.632Z,7.0786
2023-05-20T11:09:44.745Z,7.1000
2023-05-20T11:10:52.911Z,7.3214
2023-05-20T11:12:00.843Z,7.2571
2023-05-20T11:13:08.968Z,7.3571
2023-05-20T11:14:17.112Z,7.4643
2023-05-20T11:15:25.091Z,7.1786
2023-05-20T11:16:33.251Z,7.1571
2023-05-20T11:17:41.426Z,7.0000
2023-05-20T11:18:49.155Z,6.8786
2023-05-20T11:19:57.244Z,6.6429
2023-05-20T11:21:05.314Z,6.7643
2023-05-20T11:22:13.403Z,6.5143
2023-05-20T11:23:21.505Z,7.0143
2023-05-20T11:24:29.595Z,6.7357
2023-05-20T11:25:37.665Z,7.0714
2023-05-20T11:26:45.644Z,7.1786
2023-05-20T11:27:53.801Z,7.3786
2023-05-20T11:29:01.875Z,7.3214
2023-05-20T11:30:09.838Z,6.9500
2023-05-20T11:31:17.973Z,7.1571
2023-05-20T11:32:26.066Z,6.8643
2023-05-20T11:33:33.905Z,6.7429
2023-05-20T11:34:41.983Z,6.7714
2023-05-20T11:35:50.009Z,6.8571
2023-05-20T11:36:58.241Z,6.6714
2023-05-20T11:38:06.291Z,6.8071
2023-05-20T11:39:14.485Z,6.4286
2023-05-20T11:40:22.383Z,6.6786
2023-05-20T11:41:30.442Z,6.4786
2023-05-20T11:42:38.544Z,6.5286
2023-05-20T11:43:46.551Z,6.6714
2023-05-20T11:44:54.606Z,6.9643
2023-05-20T11:46:02.802Z,6.4071
2023-05-20T11:47:10.839Z,6.6714
2023-05-20T11:48:18.697Z,6.3357
2023-05-20T11:49:26.758Z,6.2786
2023-05-20T11:50:35.079Z,6.2786
2023-05-20T11:51:43.414Z,6.6429
2023-05-20T11:52:51.091Z,6.4000
2023-05-20T11:53:59.145Z,6.2286
2023-05-20T11:55:07.214Z,6.2643
2023-05-20T11:56:15.292Z,6.1857
2023-05-20T11:57:23.319Z,6.3000
2023-05-20T11:58:31.442Z,6.3429
2023-05-20T11:59:39.695Z,6.1071
2023-05-20T12:00:51.640Z,6.2286
2023-05-20T12:02:00.322Z,6.0533
2023-05-20T12:03:08.469Z,5.9714
2023-05-20T12:04:16.517Z,6.0071
2023-05-20T12:05:24.632Z,6.0143
2023-05-20T12:06:32.752Z,5.9857
2023-05-20T12:07:40.752Z,5.9929
2023-05-20T12:08:48.796Z,6.1929
2023-05-20T12:09:56.834Z,6.2214
2023-05-20T12:11:04.910Z,5.9429
2023-05-20T12:12:13.074Z,6.1500
2023-05-20T12:13:21.130Z,6.1714
2023-05-20T12:14:29.178Z,6.2143
2023-05-20T12:15:37.228Z,6.5286
2023-05-20T12:16:45.168Z,6.2786
2023-05-20T12:17:53.253Z,6.2714
2023-05-20T12:19:01.265Z,6.0786
2023-05-20T12:20:09.396Z,6.3929
2023-05-20T12:21:17.530Z,6.1214
2023-05-20T12:22:25.604Z,5.9214
2023-05-20T12:23:33.613Z,5.7714
2023-05-20T12:24:41.813Z,5.8857
2023-05-20T12:25:49.699Z,6.3357
2023-05-20T12:26:57.931Z,6.0714
2023-05-20T12:28:05.822Z,6.3500
2023-05-20T12:29:13.976Z,6.3500
2023-05-20T12:30:22.001Z,6.5071
2023-05-20T12:31:31.871Z,5.9786
2023-05-20T12:32:42.896Z,6.1867
2023-05-20T12:33:50.919Z,5.9857
2023-05-20T12:34:58.942Z,6.0786
2023-05-20T12:36:07.275Z,5.9071
2023-05-20T12:37:15.290Z,6.0500
2023-05-20T12:38:23.299Z,5.7071
2023-05-20T12:39:31.287Z,6.0714
2023-05-20T12:40:39.403Z,6.0071
2023-05-20T12:41:47.538Z,5.8000
2023-05-20T12:42:55.521Z,5.7571
2023-05-20T12:44:03.540Z,6.4500
2023-05-20T12:45:11.797Z,5.7857
2023-05-20T12:46:19.709Z,6.1143
2023-05-20T12:47:27.677Z,6.1929
2023-05-20T12:48:35.700Z,5.8000
2023-05-20T12:49:43.788Z,5.6714
2023-05-20T12:50:52.023Z,5.9214
2023-05-20T12:52:03.427Z,5.9000
2023-05-20T12:53:12.988Z,5.9200
2023-05-20T12:54:21.011Z,5.7500
2023-05-20T12:55:29.012Z,5.9214
2023-05-20T12:56:37.427Z,5.6500
2023-05-20T12:57:45.239Z,5.6357
2023-05-20T12:58:53.273Z,5.4214
2023-05-20T13:00:01.497Z,5.3714
2023-05-20T13:01:09.251Z,5.4857
2023-05-20T13:02:17.337Z,5.3000
2023-05-20T13:03:25.449Z,5.3357
2023-05-20T13:04:33.538Z,5.0714
2023-05-20T13:05:41.651Z,5.3357
2023-05-20T13:06:49.671Z,5.1714
2023-05-20T13:07:57.952Z,5.4286
2023-05-20T13:09:05.811Z,5.7571
2023-05-20T13:10:13.885Z,5.5929
2023-05-20T13:11:21.921Z,5.2000
2023-05-20T13:12:29.984Z,5.3857
2023-05-20T13:13:38.125Z,5.2571
2023-05-20T13:14:46.163Z,5.1714
2023-05-20T13:15:54.068Z,5.2643
2023-05-20T13:17:02.235Z,5.0143
2023-05-20T13:18:10.298Z,5.2429
2023-05-20T13:19:18.420Z,5.2429
2023-05-20T13:20:26.472Z,5.4429
2023-05-20T13:21:34.452Z,5.4286
2023-05-20T13:22:42.676Z,5.0714
2023-05-20T13:23:50.777Z,5.3571
2023-05-20T13:24:58.690Z,5.3000
2023-05-20T13:26:06.740Z,5.4071
2023-05-20T13:27:14.852Z,5.3214
2023-05-20T13:28:22.839Z,5.5357
2023-05-20T13:29:30.943Z,5.4143
2023-05-20T13:30:39.137Z,5.4143
2023-05-20T13:31:46.941Z,5.2929
2023-05-20T13:32:55.089Z,5.2357
2023-05-20T13:34:03.297Z,5.3929
2023-05-20T13:35:11.314Z,5.3714
2023-05-20T13:36:19.335Z,5.5357
2023-05-20T13:37:27.516Z,5.5000
2023-05-20T13:38:37.243Z,5.6357
2023-05-20T13:39:48.572Z,5.6067
2023-05-20T13:40:56.561Z,5.8000
2023-05-20T13:42:04.550Z,5.7500
2023-05-20T13:43:12.698Z,5.8000
2023-05-20T13:44:20.598Z,5.4071
2023-05-20T13:45:28.640Z,5.3929
2023-05-20T13:46:36.714Z,5.3786
2023-05-20T13:47:44.915Z,5.4786
2023-05-20T13:48:52.950Z,5.3429
2023-05-20T13:50:02.964Z,5.3786
2023-05-20T13:51:13.895Z,5.2267
2023-05-20T13:52:22.004Z,5.3786
2023-05-20T13:53:30.090Z,5.1000
2023-05-20T13:54:38.174Z,5.4429
2023-05-20T13:55:46.267Z,5.4286
2023-05-20T13:56:54.293Z,5.0357
2023-05-20T13:58:02.219Z,4.8786
2023-05-20T13:59:10.288Z,4.6929
2023-05-20T14:00:18.385Z,4.9214
2023-05-20T14:01:26.543Z,5.1929
2023-05-20T14:02:34.641Z,5.0929
2023-05-20T14:03:42.708Z,5.1786
2023-05-20T14:04:50.689Z,5.1786
2023-05-20T14:05:58.807Z,5.4000
2023-05-20T14:07:09.384Z,5.4643
2023-05-20T14:08:19.821Z,4.8733
2023-05-20T14:09:27.869Z,5.1143